• Join FlightAware (Why Join?)
  • Login
  • US Flag 
05:00AM EDT


 

Airport Tracker/Info


-or-


 

Live Flight TrackerFlight Track Log ✈ N762NC ✈ 08-Oct-2013 ✈ KATL - KGSP

Flight Track Log - Related Links

Times and Time Zones

All times are in EDT time to prevent confusion due to time zone crossing. See the N762NC flight status page for this flight to view local times or setup timezone preferences in your user account.

Time Position Orientation Groundspeed Altitude Reporting Facility
EDT Latitude Longitude Course Direction KTS MPH feet Rate Location/Type
02:27PM 33.6500 -84.3833 68° East 179 206 2,500  Level Atlanta TRACON
02:28PM 33.6833 -84.3000 64° Northeast 249 287 5,100 2,520 Climbing Atlanta TRACON
02:29PM 33.7000 -84.2333 73° East 270 311 7,600 1,620 Climbing Atlanta TRACON
02:30PM 33.8350 -84.0888 59° Northeast  Level Estimated
02:31PM 33.8844 -84.0037 55° Northeast  Level Estimated
02:31PM 33.7733 -84.0364 66° East 308 354 10,200  Level Atlanta Center
02:32PM 33.9338 -83.9186 58° Northeast  Level Estimated
02:32PM 33.8108 -83.9339 66° East 325 374 13,200  Level Atlanta Center
02:33PM 33.9667 -83.8226 68° East  Level FlightAware Approximate
02:33PM 33.8483 -83.8286 67° East 337 388 15,500  Level Atlanta Center
02:34PM 33.8878 -83.7186 67° East 346 398 17,500 1,860 Climbing Atlanta Center
02:35PM 33.9417 -83.6106 59° Northeast 359 413 19,300 1,200 Climbing Atlanta Center
02:36PM 33.9997 -83.5150 54° Northeast 380 437 20,000 300 Climbing Atlanta Center
02:37PM 34.0703 -83.4069 52° Northeast 399 459 19,900 -600 Descending Atlanta Center
02:38PM 34.1364 -83.3033 52° Northeast 400 460 18,900 -1,200 Descending Atlanta Center
02:39PM 34.2047 -83.1947 53° Northeast 400 460 17,500 -1,920 Descending Atlanta Center
02:40PM 34.2622 -83.0936 55° Northeast 380 437 15,100 -2,700 Descending Atlanta Center
02:41PM 34.3158 -82.9900 58° Northeast 364 419 12,200 -2,040 Descending Atlanta Center
02:42PM 34.3628 -82.8889 61° Northeast 353 406 11,100 -600 Descending Atlanta Center
02:43PM 34.4139 -82.7900 58° Northeast 335 386 11,000 -720 Descending Atlanta Center
02:44PM 34.4761 -82.7311 38° Northeast 313 360 9,700 -1,500 Descending Atlanta Center
02:45PM 34.5231 -82.6547 53° Northeast 294 338 8,100 -1,680 Descending Atlanta Center
02:46PM 34.5661 -82.5783 56° Northeast 282 325 6,400 -1,080 Descending Atlanta Center
02:47PM 34.6069 -82.5044 56° Northeast 266 306 6,000 -240 Descending Atlanta Center
02:48PM 34.6478 -82.4303 56° Northeast 266 306 6,000 -600 Level Atlanta Center
02:49PM 34.6950 -82.3714 46° Northeast 253 291 4,800 -1,380 Descending Atlanta Center
02:50PM 34.7486 -82.3297 33° Northeast 233 268 3,300 -1,500 Descending Atlanta Center